sensor_id;sensor_type;location;lat;lon;timestamp;P1;durP1;ratioP1;P2;durP2;ratioP2
38465;SDS011;24244;51.950;5.902;2023-05-10T00:01:39;15.68;;;8.02;;
38465;SDS011;24244;51.950;5.902;2023-05-10T00:04:06;15.43;;;7.68;;
38465;SDS011;24244;51.950;5.902;2023-05-10T00:06:34;16.15;;;9.38;;
38465;SDS011;24244;51.950;5.902;2023-05-10T00:09:00;15.60;;;8.88;;
38465;SDS011;24244;51.950;5.902;2023-05-10T00:19:03;13.70;;;7.38;;
38465;SDS011;24244;51.950;5.902;2023-05-10T00:21:30;16.80;;;9.10;;
38465;SDS011;24244;51.950;5.902;2023-05-10T00:23:58;14.52;;;7.32;;
38465;SDS011;24244;51.950;5.902;2023-05-10T00:26:25;16.38;;;9.45;;
38465;SDS011;24244;51.950;5.902;2023-05-10T00:28:52;14.88;;;8.50;;
38465;SDS011;24244;51.950;5.902;2023-05-10T00:31:19;18.75;;;9.30;;
38465;SDS011;24244;51.950;5.902;2023-05-10T00:33:45;18.60;;;9.60;;
38465;SDS011;24244;51.950;5.902;2023-05-10T00:36:13;20.75;;;10.98;;
38465;SDS011;24244;51.950;5.902;2023-05-10T00:38:40;19.15;;;10.90;;
38465;SDS011;24244;51.950;5.902;2023-05-10T00:41:07;17.65;;;9.30;;
38465;SDS011;24244;51.950;5.902;2023-05-10T00:43:34;19.38;;;11.00;;
38465;SDS011;24244;51.950;5.902;2023-05-10T00:46:00;17.90;;;9.75;;
38465;SDS011;24244;51.950;5.902;2023-05-10T00:48:28;19.33;;;9.80;;
38465;SDS011;24244;51.950;5.902;2023-05-10T00:50:55;19.48;;;9.85;;
38465;SDS011;24244;51.950;5.902;2023-05-10T00:53:23;20.77;;;11.20;;
38465;SDS011;24244;51.950;5.902;2023-05-10T00:55:50;19.73;;;11.45;;
38465;SDS011;24244;51.950;5.902;2023-05-10T00:58:17;20.38;;;11.05;;
38465;SDS011;24244;51.950;5.902;2023-05-10T01:00:44;22.20;;;11.13;;
38465;SDS011;24244;51.950;5.902;2023-05-10T01:03:12;20.25;;;10.35;;
38465;SDS011;24244;51.950;5.902;2023-05-10T01:05:40;20.48;;;10.82;;
38465;SDS011;24244;51.950;5.902;2023-05-10T01:08:07;21.08;;;11.75;;
38465;SDS011;24244;51.950;5.902;2023-05-10T01:10:36;22.85;;;11.85;;
38465;SDS011;24244;51.950;5.902;2023-05-10T01:13:03;19.83;;;10.48;;
38465;SDS011;24244;51.950;5.902;2023-05-10T01:15:30;20.70;;;11.63;;
38465;SDS011;24244;51.950;5.902;2023-05-10T01:17:57;21.13;;;10.52;;
38465;SDS011;24244;51.950;5.902;2023-05-10T01:20:25;21.90;;;10.73;;
38465;SDS011;24244;51.950;5.902;2023-05-10T01:23:07;19.50;;;10.98;;
38465;SDS011;24244;51.950;5.902;2023-05-10T01:28:53;17.38;;;9.20;;
38465;SDS011;24244;51.950;5.902;2023-05-10T01:34:42;20.90;;;9.18;;
38465;SDS011;24244;51.950;5.902;2023-05-10T01:37:20;17.58;;;10.00;;
38465;SDS011;24244;51.950;5.902;2023-05-10T01:39:52;16.75;;;9.25;;
38465;SDS011;24244;51.950;5.902;2023-05-10T01:42:28;18.80;;;9.40;;
38465;SDS011;24244;51.950;5.902;2023-05-10T01:45:05;20.27;;;10.30;;
38465;SDS011;24244;51.950;5.902;2023-05-10T01:47:38;18.50;;;9.45;;
38465;SDS011;24244;51.950;5.902;2023-05-10T01:50:10;17.80;;;9.27;;
38465;SDS011;24244;51.950;5.902;2023-05-10T01:52:51;18.58;;;9.85;;
38465;SDS011;24244;51.950;5.902;2023-05-10T01:55:21;19.17;;;9.57;;
38465;SDS011;24244;51.950;5.902;2023-05-10T01:57:55;17.67;;;8.73;;
38465;SDS011;24244;51.950;5.902;2023-05-10T02:00:26;19.85;;;9.20;;
38465;SDS011;24244;51.950;5.902;2023-05-10T02:02:55;17.90;;;7.97;;
38465;SDS011;24244;51.950;5.902;2023-05-10T02:05:24;19.23;;;8.98;;
38465;SDS011;24244;51.950;5.902;2023-05-10T02:07:54;18.35;;;8.57;;
38465;SDS011;24244;51.950;5.902;2023-05-10T02:10:21;18.27;;;8.63;;
38465;SDS011;24244;51.950;5.902;2023-05-10T02:12:48;19.33;;;9.18;;
38465;SDS011;24244;51.950;5.902;2023-05-10T02:15:18;18.00;;;8.23;;
38465;SDS011;24244;51.950;5.902;2023-05-10T02:17:48;21.95;;;8.85;;
38465;SDS011;24244;51.950;5.902;2023-05-10T02:20:16;19.17;;;9.32;;
38465;SDS011;24244;51.950;5.902;2023-05-10T02:22:47;19.15;;;9.60;;
38465;SDS011;24244;51.950;5.902;2023-05-10T02:25:15;16.60;;;7.88;;
38465;SDS011;24244;51.950;5.902;2023-05-10T02:27:44;18.95;;;9.57;;
38465;SDS011;24244;51.950;5.902;2023-05-10T02:30:13;19.00;;;9.50;;
38465;SDS011;24244;51.950;5.902;2023-05-10T02:32:41;20.27;;;8.30;;
38465;SDS011;24244;51.950;5.902;2023-05-10T02:35:09;19.85;;;9.63;;
38465;SDS011;24244;51.950;5.902;2023-05-10T02:37:37;19.52;;;9.00;;
38465;SDS011;24244;51.950;5.902;2023-05-10T02:40:07;21.15;;;9.93;;
38465;SDS011;24244;51.950;5.902;2023-05-10T02:42:36;23.27;;;10.48;;
38465;SDS011;24244;51.950;5.902;2023-05-10T02:45:08;19.25;;;7.95;;
38465;SDS011;24244;51.950;5.902;2023-05-10T02:47:38;22.60;;;11.02;;
38465;SDS011;24244;51.950;5.902;2023-05-10T02:50:05;26.25;;;11.38;;
38465;SDS011;24244;51.950;5.902;2023-05-10T02:52:36;26.38;;;12.65;;
38465;SDS011;24244;51.950;5.902;2023-05-10T02:55:08;25.00;;;12.15;;
38465;SDS011;24244;51.950;5.902;2023-05-10T03:00:07;24.85;;;11.43;;
38465;SDS011;24244;51.950;5.902;2023-05-10T03:02:35;24.17;;;12.38;;
38465;SDS011;24244;51.950;5.902;2023-05-10T03:05:02;23.85;;;11.65;;
38465;SDS011;24244;51.950;5.902;2023-05-10T03:07:30;27.08;;;10.93;;
38465;SDS011;24244;51.950;5.902;2023-05-10T03:09:56;27.42;;;11.35;;
38465;SDS011;24244;51.950;5.902;2023-05-10T03:12:26;30.23;;;12.13;;
38465;SDS011;24244;51.950;5.902;2023-05-10T03:15:03;22.75;;;12.52;;
38465;SDS011;24244;51.950;5.902;2023-05-10T03:17:41;25.50;;;13.13;;
38465;SDS011;24244;51.950;5.902;2023-05-10T03:20:16;24.83;;;12.32;;
38465;SDS011;24244;51.950;5.902;2023-05-10T03:22:50;21.45;;;10.82;;
38465;SDS011;24244;51.950;5.902;2023-05-10T03:25:19;23.38;;;10.50;;
38465;SDS011;24244;51.950;5.902;2023-05-10T03:27:49;26.05;;;11.73;;
38465;SDS011;24244;51.950;5.902;2023-05-10T03:30:18;23.52;;;10.95;;
38465;SDS011;24244;51.950;5.902;2023-05-10T03:32:46;23.10;;;11.45;;
38465;SDS011;24244;51.950;5.902;2023-05-10T03:35:16;25.52;;;11.90;;
38465;SDS011;24244;51.950;5.902;2023-05-10T03:37:43;24.20;;;12.15;;
38465;SDS011;24244;51.950;5.902;2023-05-10T03:40:09;25.15;;;12.25;;
38465;SDS011;24244;51.950;5.902;2023-05-10T03:42:37;23.15;;;12.18;;
38465;SDS011;24244;51.950;5.902;2023-05-10T03:45:05;24.23;;;12.52;;
38465;SDS011;24244;51.950;5.902;2023-05-10T03:47:33;25.33;;;12.25;;
38465;SDS011;24244;51.950;5.902;2023-05-10T03:50:00;24.65;;;12.02;;
38465;SDS011;24244;51.950;5.902;2023-05-10T03:52:27;24.42;;;10.32;;
38465;SDS011;24244;51.950;5.902;2023-05-10T03:54:53;23.13;;;12.75;;
38465;SDS011;24244;51.950;5.902;2023-05-10T03:57:20;22.15;;;12.23;;
38465;SDS011;24244;51.950;5.902;2023-05-10T03:59:47;21.08;;;10.75;;
38465;SDS011;24244;51.950;5.902;2023-05-10T04:02:15;24.38;;;13.02;;
38465;SDS011;24244;51.950;5.902;2023-05-10T04:04:41;21.52;;;10.57;;
38465;SDS011;24244;51.950;5.902;2023-05-10T04:07:09;23.50;;;11.57;;
38465;SDS011;24244;51.950;5.902;2023-05-10T04:09:36;22.10;;;10.77;;
38465;SDS011;24244;51.950;5.902;2023-05-10T04:12:03;22.48;;;11.18;;
38465;SDS011;24244;51.950;5.902;2023-05-10T04:14:30;23.50;;;10.57;;
38465;SDS011;24244;51.950;5.902;2023-05-10T04:16:57;22.88;;;10.60;;
38465;SDS011;24244;51.950;5.902;2023-05-10T04:19:28;22.77;;;11.38;;
38465;SDS011;24244;51.950;5.902;2023-05-10T04:21:55;24.02;;;11.23;;
38465;SDS011;24244;51.950;5.902;2023-05-10T04:24:22;19.77;;;10.07;;
38465;SDS011;24244;51.950;5.902;2023-05-10T04:26:49;21.63;;;9.85;;
38465;SDS011;24244;51.950;5.902;2023-05-10T04:29:15;24.05;;;11.68;;
38465;SDS011;24244;51.950;5.902;2023-05-10T04:31:42;21.50;;;10.65;;
38465;SDS011;24244;51.950;5.902;2023-05-10T04:34:09;18.98;;;8.45;;
38465;SDS011;24244;51.950;5.902;2023-05-10T04:36:37;23.10;;;12.25;;
38465;SDS011;24244;51.950;5.902;2023-05-10T04:39:03;22.13;;;9.18;;
38465;SDS011;24244;51.950;5.902;2023-05-10T04:41:30;21.98;;;11.52;;
38465;SDS011;24244;51.950;5.902;2023-05-10T04:43:57;23.33;;;10.45;;
38465;SDS011;24244;51.950;5.902;2023-05-10T04:46:24;22.15;;;10.43;;
38465;SDS011;24244;51.950;5.902;2023-05-10T04:48:51;19.95;;;9.68;;
38465;SDS011;24244;51.950;5.902;2023-05-10T04:51:18;18.95;;;9.40;;
38465;SDS011;24244;51.950;5.902;2023-05-10T04:53:46;20.38;;;10.25;;
38465;SDS011;24244;51.950;5.902;2023-05-10T04:56:32;23.17;;;10.35;;
38465;SDS011;24244;51.950;5.902;2023-05-10T04:59:00;21.50;;;10.90;;
38465;SDS011;24244;51.950;5.902;2023-05-10T05:01:27;19.02;;;9.07;;
38465;SDS011;24244;51.950;5.902;2023-05-10T05:03:53;21.33;;;9.50;;
38465;SDS011;24244;51.950;5.902;2023-05-10T05:06:20;21.95;;;11.15;;
38465;SDS011;24244;51.950;5.902;2023-05-10T05:08:48;19.48;;;9.38;;
38465;SDS011;24244;51.950;5.902;2023-05-10T05:11:15;23.38;;;11.50;;
38465;SDS011;24244;51.950;5.902;2023-05-10T05:13:43;19.45;;;9.85;;
38465;SDS011;24244;51.950;5.902;2023-05-10T05:16:10;20.83;;;10.27;;
38465;SDS011;24244;51.950;5.902;2023-05-10T05:18:37;20.33;;;9.95;;
38465;SDS011;24244;51.950;5.902;2023-05-10T05:21:13;20.98;;;10.60;;
38465;SDS011;24244;51.950;5.902;2023-05-10T05:23:41;17.73;;;9.18;;
38465;SDS011;24244;51.950;5.902;2023-05-10T05:26:09;22.60;;;11.35;;
38465;SDS011;24244;51.950;5.902;2023-05-10T05:28:36;18.95;;;8.90;;
38465;SDS011;24244;51.950;5.902;2023-05-10T05:31:03;20.80;;;10.13;;
38465;SDS011;24244;51.950;5.902;2023-05-10T05:33:31;18.63;;;9.32;;
38465;SDS011;24244;51.950;5.902;2023-05-10T05:35:59;22.38;;;9.65;;
38465;SDS011;24244;51.950;5.902;2023-05-10T05:38:26;23.88;;;10.60;;
38465;SDS011;24244;51.950;5.902;2023-05-10T05:40:53;20.38;;;9.57;;
38465;SDS011;24244;51.950;5.902;2023-05-10T05:43:21;19.90;;;9.30;;
38465;SDS011;24244;51.950;5.902;2023-05-10T05:45:48;19.30;;;8.98;;
38465;SDS011;24244;51.950;5.902;2023-05-10T05:48:15;21.88;;;11.18;;
38465;SDS011;24244;51.950;5.902;2023-05-10T05:50:42;19.67;;;9.10;;
38465;SDS011;24244;51.950;5.902;2023-05-10T05:53:09;23.65;;;11.00;;
38465;SDS011;24244;51.950;5.902;2023-05-10T05:55:36;19.33;;;8.90;;
38465;SDS011;24244;51.950;5.902;2023-05-10T05:58:03;21.92;;;10.75;;
38465;SDS011;24244;51.950;5.902;2023-05-10T06:00:32;20.52;;;9.07;;
38465;SDS011;24244;51.950;5.902;2023-05-10T06:02:59;22.70;;;10.05;;
38465;SDS011;24244;51.950;5.902;2023-05-10T06:05:26;21.67;;;9.18;;
38465;SDS011;24244;51.950;5.902;2023-05-10T06:07:52;21.92;;;10.50;;
38465;SDS011;24244;51.950;5.902;2023-05-10T06:10:19;21.42;;;9.85;;
38465;SDS011;24244;51.950;5.902;2023-05-10T06:12:46;18.73;;;9.52;;
38465;SDS011;24244;51.950;5.902;2023-05-10T06:15:15;21.75;;;9.98;;
38465;SDS011;24244;51.950;5.902;2023-05-10T06:17:44;19.42;;;9.02;;
38465;SDS011;24244;51.950;5.902;2023-05-10T06:20:12;20.00;;;10.50;;
38465;SDS011;24244;51.950;5.902;2023-05-10T06:22:39;20.58;;;10.38;;
38465;SDS011;24244;51.950;5.902;2023-05-10T06:25:06;21.40;;;10.18;;
38465;SDS011;24244;51.950;5.902;2023-05-10T06:27:33;17.02;;;8.63;;
38465;SDS011;24244;51.950;5.902;2023-05-10T06:30:00;21.10;;;10.05;;
38465;SDS011;24244;51.950;5.902;2023-05-10T06:32:38;22.45;;;10.65;;
38465;SDS011;24244;51.950;5.902;2023-05-10T06:35:07;19.17;;;9.90;;
38465;SDS011;24244;51.950;5.902;2023-05-10T06:37:34;22.33;;;10.05;;
38465;SDS011;24244;51.950;5.902;2023-05-10T06:40:01;19.27;;;8.45;;
38465;SDS011;24244;51.950;5.902;2023-05-10T06:42:28;18.38;;;8.23;;
38465;SDS011;24244;51.950;5.902;2023-05-10T06:44:55;16.50;;;7.97;;
38465;SDS011;24244;51.950;5.902;2023-05-10T06:47:22;18.10;;;7.82;;
38465;SDS011;24244;51.950;5.902;2023-05-10T06:49:48;21.08;;;9.75;;
38465;SDS011;24244;51.950;5.902;2023-05-10T06:52:19;23.02;;;10.85;;
38465;SDS011;24244;51.950;5.902;2023-05-10T06:54:47;21.10;;;9.60;;
38465;SDS011;24244;51.950;5.902;2023-05-10T06:57:14;21.73;;;10.00;;
38465;SDS011;24244;51.950;5.902;2023-05-10T06:59:57;22.63;;;9.75;;
38465;SDS011;24244;51.950;5.902;2023-05-10T07:02:24;19.25;;;10.45;;
38465;SDS011;24244;51.950;5.902;2023-05-10T07:04:51;22.48;;;10.43;;
38465;SDS011;24244;51.950;5.902;2023-05-10T07:07:20;20.02;;;11.00;;
38465;SDS011;24244;51.950;5.902;2023-05-10T07:09:47;21.60;;;9.63;;
38465;SDS011;24244;51.950;5.902;2023-05-10T07:12:13;20.65;;;11.32;;
38465;SDS011;24244;51.950;5.902;2023-05-10T07:14:41;24.00;;;10.48;;
38465;SDS011;24244;51.950;5.902;2023-05-10T07:17:08;22.23;;;11.20;;
38465;SDS011;24244;51.950;5.902;2023-05-10T07:19:35;24.08;;;10.23;;
38465;SDS011;24244;51.950;5.902;2023-05-10T07:22:02;24.50;;;11.57;;
38465;SDS011;24244;51.950;5.902;2023-05-10T07:24:31;23.23;;;10.43;;
38465;SDS011;24244;51.950;5.902;2023-05-10T07:26:58;25.85;;;12.20;;
38465;SDS011;24244;51.950;5.902;2023-05-10T07:29:25;27.35;;;12.23;;
38465;SDS011;24244;51.950;5.902;2023-05-10T07:31:52;24.92;;;12.15;;
38465;SDS011;24244;51.950;5.902;2023-05-10T07:34:22;25.25;;;13.05;;
38465;SDS011;24244;51.950;5.902;2023-05-10T07:36:49;27.33;;;13.05;;
38465;SDS011;24244;51.950;5.902;2023-05-10T07:39:15;25.73;;;12.68;;
38465;SDS011;24244;51.950;5.902;2023-05-10T07:41:54;28.00;;;11.50;;
38465;SDS011;24244;51.950;5.902;2023-05-10T07:44:21;32.30;;;14.30;;
38465;SDS011;24244;51.950;5.902;2023-05-10T07:46:48;26.77;;;12.85;;
38465;SDS011;24244;51.950;5.902;2023-05-10T07:49:16;27.55;;;11.43;;
38465;SDS011;24244;51.950;5.902;2023-05-10T07:51:43;29.33;;;12.85;;
38465;SDS011;24244;51.950;5.902;2023-05-10T07:54:11;25.88;;;12.45;;
38465;SDS011;24244;51.950;5.902;2023-05-10T07:56:39;23.08;;;11.20;;
38465;SDS011;24244;51.950;5.902;2023-05-10T07:59:08;26.80;;;12.50;;
38465;SDS011;24244;51.950;5.902;2023-05-10T08:01:38;26.92;;;13.63;;
38465;SDS011;24244;51.950;5.902;2023-05-10T08:04:04;26.17;;;12.65;;
38465;SDS011;24244;51.950;5.902;2023-05-10T08:06:31;27.33;;;12.40;;
38465;SDS011;24244;51.950;5.902;2023-05-10T08:08:58;27.38;;;12.45;;
38465;SDS011;24244;51.950;5.902;2023-05-10T08:11:26;24.27;;;9.68;;
38465;SDS011;24244;51.950;5.902;2023-05-10T08:13:55;23.95;;;11.45;;
38465;SDS011;24244;51.950;5.902;2023-05-10T08:16:23;25.33;;;11.65;;
38465;SDS011;24244;51.950;5.902;2023-05-10T08:18:50;22.63;;;11.52;;
38465;SDS011;24244;51.950;5.902;2023-05-10T08:21:17;23.45;;;10.23;;
38465;SDS011;24244;51.950;5.902;2023-05-10T08:23:44;22.08;;;9.95;;
38465;SDS011;24244;51.950;5.902;2023-05-10T08:26:11;22.10;;;10.65;;
38465;SDS011;24244;51.950;5.902;2023-05-10T08:28:37;22.02;;;10.25;;
38465;SDS011;24244;51.950;5.902;2023-05-10T08:31:05;21.70;;;9.50;;
38465;SDS011;24244;51.950;5.902;2023-05-10T08:33:33;23.42;;;11.38;;
38465;SDS011;24244;51.950;5.902;2023-05-10T08:36:00;22.00;;;10.35;;
38465;SDS011;24244;51.950;5.902;2023-05-10T08:38:27;18.20;;;10.30;;
38465;SDS011;24244;51.950;5.902;2023-05-10T08:40:54;23.48;;;9.40;;
38465;SDS011;24244;51.950;5.902;2023-05-10T08:43:23;15.20;;;7.53;;
38465;SDS011;24244;51.950;5.902;2023-05-10T08:45:53;17.25;;;8.10;;
38465;SDS011;24244;51.950;5.902;2023-05-10T08:48:22;17.85;;;9.35;;
38465;SDS011;24244;51.950;5.902;2023-05-10T08:50:53;19.05;;;8.48;;
38465;SDS011;24244;51.950;5.902;2023-05-10T08:53:23;18.77;;;7.82;;
38465;SDS011;24244;51.950;5.902;2023-05-10T08:55:53;15.82;;;7.68;;
38465;SDS011;24244;51.950;5.902;2023-05-10T08:58:20;14.98;;;7.00;;
38465;SDS011;24244;51.950;5.902;2023-05-10T09:00:48;13.90;;;6.78;;
38465;SDS011;24244;51.950;5.902;2023-05-10T09:03:17;15.02;;;6.63;;
38465;SDS011;24244;51.950;5.902;2023-05-10T09:05:44;11.45;;;5.72;;
38465;SDS011;24244;51.950;5.902;2023-05-10T09:08:12;13.82;;;6.68;;
38465;SDS011;24244;51.950;5.902;2023-05-10T09:10:42;11.60;;;5.93;;
38465;SDS011;24244;51.950;5.902;2023-05-10T09:13:12;13.77;;;5.47;;
38465;SDS011;24244;51.950;5.902;2023-05-10T09:15:40;11.05;;;5.13;;
38465;SDS011;24244;51.950;5.902;2023-05-10T09:18:07;11.70;;;5.05;;
38465;SDS011;24244;51.950;5.902;2023-05-10T09:20:34;10.05;;;5.10;;
38465;SDS011;24244;51.950;5.902;2023-05-10T09:23:01;9.68;;;5.05;;
38465;SDS011;24244;51.950;5.902;2023-05-10T09:25:29;10.95;;;5.97;;
38465;SDS011;24244;51.950;5.902;2023-05-10T09:27:56;8.82;;;4.47;;
38465;SDS011;24244;51.950;5.902;2023-05-10T09:30:23;6.72;;;3.72;;
38465;SDS011;24244;51.950;5.902;2023-05-10T09:32:52;8.23;;;4.03;;
38465;SDS011;24244;51.950;5.902;2023-05-10T09:35:20;7.55;;;3.60;;
38465;SDS011;24244;51.950;5.902;2023-05-10T09:37:49;7.65;;;4.13;;
38465;SDS011;24244;51.950;5.902;2023-05-10T09:40:18;6.40;;;3.17;;
38465;SDS011;24244;51.950;5.902;2023-05-10T09:42:52;7.35;;;4.00;;
38465;SDS011;24244;51.950;5.902;2023-05-10T09:45:22;8.00;;;4.18;;
38465;SDS011;24244;51.950;5.902;2023-05-10T09:47:50;6.88;;;3.38;;
38465;SDS011;24244;51.950;5.902;2023-05-10T09:50:18;7.25;;;3.17;;
38465;SDS011;24244;51.950;5.902;2023-05-10T09:52:46;7.90;;;3.88;;
38465;SDS011;24244;51.950;5.902;2023-05-10T09:55:15;7.30;;;3.88;;
38465;SDS011;24244;51.950;5.902;2023-05-10T09:57:43;7.63;;;4.03;;
38465;SDS011;24244;51.950;5.902;2023-05-10T10:00:12;8.68;;;4.75;;
38465;SDS011;24244;51.950;5.902;2023-05-10T10:02:45;8.38;;;3.83;;
38465;SDS011;24244;51.950;5.902;2023-05-10T10:05:14;8.30;;;3.85;;
38465;SDS011;24244;51.950;5.902;2023-05-10T10:07:41;7.13;;;4.10;;
38465;SDS011;24244;51.950;5.902;2023-05-10T10:10:08;7.53;;;3.80;;
38465;SDS011;24244;51.950;5.902;2023-05-10T10:12:39;5.43;;;2.88;;
38465;SDS011;24244;51.950;5.902;2023-05-10T10:15:07;6.85;;;3.58;;
38465;SDS011;24244;51.950;5.902;2023-05-10T10:17:36;7.13;;;3.13;;
38465;SDS011;24244;51.950;5.902;2023-05-10T10:20:05;6.88;;;2.85;;
38465;SDS011;24244;51.950;5.902;2023-05-10T10:22:37;5.85;;;2.90;;
38465;SDS011;24244;51.950;5.902;2023-05-10T10:25:05;6.47;;;3.13;;
38465;SDS011;24244;51.950;5.902;2023-05-10T10:27:36;5.78;;;3.15;;
38465;SDS011;24244;51.950;5.902;2023-05-10T10:30:13;6.90;;;2.53;;
38465;SDS011;24244;51.950;5.902;2023-05-10T10:32:59;5.10;;;2.60;;
38465;SDS011;24244;51.950;5.902;2023-05-10T10:35:53;7.38;;;3.25;;
38465;SDS011;24244;51.950;5.902;2023-05-10T10:38:21;6.05;;;3.13;;
38465;SDS011;24244;51.950;5.902;2023-05-10T10:40:49;9.25;;;4.78;;
38465;SDS011;24244;51.950;5.902;2023-05-10T10:43:28;8.25;;;3.90;;
38465;SDS011;24244;51.950;5.902;2023-05-10T10:46:12;8.27;;;4.72;;
38465;SDS011;24244;51.950;5.902;2023-05-10T10:48:43;9.10;;;4.78;;
38465;SDS011;24244;51.950;5.902;2023-05-10T10:51:14;9.25;;;4.00;;
38465;SDS011;24244;51.950;5.902;2023-05-10T10:53:41;8.48;;;4.30;;
38465;SDS011;24244;51.950;5.902;2023-05-10T10:56:09;7.95;;;4.03;;
38465;SDS011;24244;51.950;5.902;2023-05-10T10:58:38;7.38;;;4.25;;
38465;SDS011;24244;51.950;5.902;2023-05-10T11:01:12;9.88;;;4.85;;
38465;SDS011;24244;51.950;5.902;2023-05-10T11:06:46;9.65;;;4.28;;
38465;SDS011;24244;51.950;5.902;2023-05-10T11:09:13;7.72;;;3.92;;
38465;SDS011;24244;51.950;5.902;2023-05-10T11:11:50;9.95;;;4.68;;
38465;SDS011;24244;51.950;5.902;2023-05-10T11:14:19;8.35;;;4.20;;
38465;SDS011;24244;51.950;5.902;2023-05-10T11:16:51;9.55;;;4.38;;
38465;SDS011;24244;51.950;5.902;2023-05-10T11:19:19;8.27;;;4.32;;
38465;SDS011;24244;51.950;5.902;2023-05-10T11:21:48;9.68;;;5.20;;
38465;SDS011;24244;51.950;5.902;2023-05-10T11:24:17;8.98;;;4.57;;
38465;SDS011;24244;51.950;5.902;2023-05-10T11:26:45;10.10;;;4.68;;
38465;SDS011;24244;51.950;5.902;2023-05-10T11:29:12;9.07;;;4.82;;
38465;SDS011;24244;51.950;5.902;2023-05-10T11:31:43;7.10;;;3.90;;
38465;SDS011;24244;51.950;5.902;2023-05-10T11:34:11;8.40;;;4.05;;
38465;SDS011;24244;51.950;5.902;2023-05-10T11:36:51;7.13;;;3.72;;
38465;SDS011;24244;51.950;5.902;2023-05-10T11:39:20;9.45;;;4.28;;
38465;SDS011;24244;51.950;5.902;2023-05-10T11:41:48;7.65;;;3.80;;
38465;SDS011;24244;51.950;5.902;2023-05-10T11:44:16;7.15;;;3.85;;
38465;SDS011;24244;51.950;5.902;2023-05-10T11:46:43;8.82;;;4.50;;
38465;SDS011;24244;51.950;5.902;2023-05-10T11:49:10;9.43;;;4.63;;
38465;SDS011;24244;51.950;5.902;2023-05-10T11:51:38;6.53;;;3.45;;
38465;SDS011;24244;51.950;5.902;2023-05-10T11:54:07;8.00;;;4.50;;
38465;SDS011;24244;51.950;5.902;2023-05-10T11:56:35;7.57;;;4.10;;
38465;SDS011;24244;51.950;5.902;2023-05-10T11:59:03;7.00;;;3.15;;
38465;SDS011;24244;51.950;5.902;2023-05-10T12:01:30;7.32;;;4.05;;
38465;SDS011;24244;51.950;5.902;2023-05-10T12:03:59;7.22;;;3.28;;
38465;SDS011;24244;51.950;5.902;2023-05-10T12:06:27;6.70;;;3.08;;
38465;SDS011;24244;51.950;5.902;2023-05-10T12:11:27;5.72;;;3.22;;
38465;SDS011;24244;51.950;5.902;2023-05-10T12:13:55;6.70;;;3.22;;
38465;SDS011;24244;51.950;5.902;2023-05-10T12:16:23;6.40;;;3.05;;
38465;SDS011;24244;51.950;5.902;2023-05-10T12:18:56;5.13;;;2.95;;
38465;SDS011;24244;51.950;5.902;2023-05-10T12:21:24;6.40;;;3.05;;
38465;SDS011;24244;51.950;5.902;2023-05-10T12:23:53;5.55;;;2.95;;
38465;SDS011;24244;51.950;5.902;2023-05-10T12:26:21;6.50;;;3.40;;
38465;SDS011;24244;51.950;5.902;2023-05-10T12:28:51;5.70;;;3.53;;
38465;SDS011;24244;51.950;5.902;2023-05-10T12:31:18;5.63;;;2.97;;
38465;SDS011;24244;51.950;5.902;2023-05-10T12:33:45;5.30;;;3.30;;
38465;SDS011;24244;51.950;5.902;2023-05-10T12:36:14;4.93;;;3.13;;
38465;SDS011;24244;51.950;5.902;2023-05-10T12:38:42;5.03;;;2.90;;
38465;SDS011;24244;51.950;5.902;2023-05-10T12:41:11;5.85;;;3.22;;
38465;SDS011;24244;51.950;5.902;2023-05-10T12:43:39;8.00;;;3.17;;
38465;SDS011;24244;51.950;5.902;2023-05-10T12:46:08;4.97;;;2.65;;
38465;SDS011;24244;51.950;5.902;2023-05-10T12:48:38;6.10;;;3.35;;
38465;SDS011;24244;51.950;5.902;2023-05-10T12:51:07;5.20;;;3.08;;
38465;SDS011;24244;51.950;5.902;2023-05-10T12:53:35;4.80;;;2.58;;
38465;SDS011;24244;51.950;5.902;2023-05-10T12:56:03;4.18;;;2.88;;
38465;SDS011;24244;51.950;5.902;2023-05-10T12:58:30;4.68;;;2.58;;
38465;SDS011;24244;51.950;5.902;2023-05-10T13:01:01;7.00;;;3.63;;
38465;SDS011;24244;51.950;5.902;2023-05-10T13:03:30;5.28;;;2.90;;
38465;SDS011;24244;51.950;5.902;2023-05-10T13:05:57;5.13;;;2.90;;
38465;SDS011;24244;51.950;5.902;2023-05-10T13:08:24;5.10;;;2.90;;
38465;SDS011;24244;51.950;5.902;2023-05-10T13:10:51;4.65;;;2.63;;
38465;SDS011;24244;51.950;5.902;2023-05-10T13:13:18;4.35;;;2.42;;
38465;SDS011;24244;51.950;5.902;2023-05-10T13:15:45;6.25;;;2.92;;
38465;SDS011;24244;51.950;5.902;2023-05-10T13:18:12;5.07;;;2.55;;
38465;SDS011;24244;51.950;5.902;2023-05-10T13:20:40;5.45;;;2.38;;
38465;SDS011;24244;51.950;5.902;2023-05-10T13:23:09;4.80;;;2.95;;
38465;SDS011;24244;51.950;5.902;2023-05-10T13:25:36;5.15;;;3.03;;
38465;SDS011;24244;51.950;5.902;2023-05-10T13:28:05;4.25;;;2.28;;
38465;SDS011;24244;51.950;5.902;2023-05-10T13:30:31;4.75;;;2.97;;
38465;SDS011;24244;51.950;5.902;2023-05-10T13:32:58;3.65;;;1.90;;
38465;SDS011;24244;51.950;5.902;2023-05-10T13:35:25;4.22;;;3.15;;
38465;SDS011;24244;51.950;5.902;2023-05-10T13:37:53;6.07;;;2.47;;
38465;SDS011;24244;51.950;5.902;2023-05-10T13:40:23;4.63;;;2.97;;
38465;SDS011;24244;51.950;5.902;2023-05-10T13:42:59;6.40;;;3.67;;
38465;SDS011;24244;51.950;5.902;2023-05-10T13:45:28;6.05;;;4.07;;
38465;SDS011;24244;51.950;5.902;2023-05-10T13:47:55;7.60;;;3.60;;
38465;SDS011;24244;51.950;5.902;2023-05-10T13:50:22;7.07;;;4.82;;
38465;SDS011;24244;51.950;5.902;2023-05-10T13:52:49;5.25;;;3.70;;
38465;SDS011;24244;51.950;5.902;2023-05-10T13:55:17;6.32;;;3.88;;
38465;SDS011;24244;51.950;5.902;2023-05-10T13:57:45;6.47;;;3.75;;
38465;SDS011;24244;51.950;5.902;2023-05-10T14:00:12;6.00;;;3.72;;
38465;SDS011;24244;51.950;5.902;2023-05-10T14:02:39;8.43;;;4.35;;
38465;SDS011;24244;51.950;5.902;2023-05-10T14:05:07;6.25;;;4.20;;
38465;SDS011;24244;51.950;5.902;2023-05-10T14:07:34;6.43;;;3.92;;
38465;SDS011;24244;51.950;5.902;2023-05-10T14:10:01;7.35;;;4.88;;
38465;SDS011;24244;51.950;5.902;2023-05-10T14:12:29;6.22;;;4.20;;
38465;SDS011;24244;51.950;5.902;2023-05-10T14:14:56;7.22;;;5.50;;
38465;SDS011;24244;51.950;5.902;2023-05-10T14:17:24;6.57;;;4.55;;
38465;SDS011;24244;51.950;5.902;2023-05-10T14:19:51;6.18;;;4.15;;
38465;SDS011;24244;51.950;5.902;2023-05-10T14:22:19;7.18;;;4.63;;
38465;SDS011;24244;51.950;5.902;2023-05-10T14:24:45;7.22;;;5.47;;
38465;SDS011;24244;51.950;5.902;2023-05-10T14:27:13;7.70;;;5.10;;
38465;SDS011;24244;51.950;5.902;2023-05-10T14:29:41;7.18;;;5.15;;
38465;SDS011;24244;51.950;5.902;2023-05-10T14:32:08;6.47;;;5.15;;
38465;SDS011;24244;51.950;5.902;2023-05-10T14:34:35;7.43;;;4.53;;
38465;SDS011;24244;51.950;5.902;2023-05-10T14:37:03;7.03;;;4.63;;
38465;SDS011;24244;51.950;5.902;2023-05-10T14:39:30;7.15;;;5.07;;
38465;SDS011;24244;51.950;5.902;2023-05-10T14:41:57;7.78;;;4.80;;
38465;SDS011;24244;51.950;5.902;2023-05-10T14:44:24;5.50;;;4.07;;
38465;SDS011;24244;51.950;5.902;2023-05-10T14:46:53;6.93;;;4.82;;
38465;SDS011;24244;51.950;5.902;2023-05-10T14:49:21;5.60;;;3.63;;
38465;SDS011;24244;51.950;5.902;2023-05-10T14:51:51;5.15;;;3.30;;
38465;SDS011;24244;51.950;5.902;2023-05-10T14:54:17;5.90;;;3.83;;
38465;SDS011;24244;51.950;5.902;2023-05-10T14:56:44;5.72;;;2.88;;
38465;SDS011;24244;51.950;5.902;2023-05-10T14:59:11;4.93;;;3.15;;
38465;SDS011;24244;51.950;5.902;2023-05-10T15:01:41;4.18;;;2.83;;
38465;SDS011;24244;51.950;5.902;2023-05-10T15:04:10;4.00;;;2.58;;
38465;SDS011;24244;51.950;5.902;2023-05-10T15:06:37;5.45;;;2.42;;